createdAt,value
2023-03-25T00:02:57.285Z,10.62
2023-03-25T00:07:59.047Z,10.66
2023-03-25T00:13:04.909Z,10.60
2023-03-25T00:18:06.726Z,10.57
2023-03-25T00:23:08.415Z,10.50
2023-03-25T00:28:10.128Z,10.45
2023-03-25T00:33:13.351Z,10.39
2023-03-25T00:38:15.021Z,10.47
2023-03-25T00:43:16.772Z,10.39
2023-03-25T00:48:18.494Z,10.28
2023-03-25T00:53:21.159Z,10.42
2023-03-25T00:58:22.854Z,10.30
2023-03-25T01:03:29.065Z,10.32
2023-03-25T01:08:32.126Z,10.32
2023-03-25T01:13:34.313Z,10.31
2023-03-25T01:18:38.117Z,10.32
2023-03-25T01:23:39.894Z,10.28
2023-03-25T01:28:43.241Z,10.25
2023-03-25T01:33:44.959Z,10.29
2023-03-25T01:38:48.079Z,10.18
2023-03-25T01:44:05.052Z,10.25
2023-03-25T01:49:10.019Z,10.32
2023-03-25T01:54:17.899Z,10.29
2023-03-25T01:59:25.034Z,10.23
2023-03-25T02:04:45.380Z,10.17
2023-03-25T02:09:47.238Z,10.37
2023-03-25T02:14:49.082Z,10.38
2023-03-25T02:20:11.124Z,10.37
2023-03-25T02:25:22.042Z,10.44
2023-03-25T02:30:48.808Z,10.38
2023-03-25T02:36:10.569Z,10.41
2023-03-25T02:41:31.105Z,10.35
2023-03-25T02:46:36.300Z,10.37
2023-03-25T02:51:46.150Z,10.15
2023-03-25T02:56:50.890Z,10.13
2023-03-25T03:01:58.453Z,10.10
2023-03-25T03:07:01.173Z,10.02
2023-03-25T03:12:27.431Z,10.22
2023-03-25T03:17:50.324Z,9.92
2023-03-25T03:23:26.018Z,10.13
2023-03-25T03:28:33.530Z,10.09
2023-03-25T03:33:50.707Z,10.06
2023-03-25T03:39:16.319Z,10.17
2023-03-25T03:44:23.007Z,10.09
2023-03-25T03:49:38.254Z,10.07
2023-03-25T03:54:52.278Z,10.10
2023-03-25T04:00:16.085Z,10.03
2023-03-25T04:05:21.669Z,10.03
2023-03-25T04:10:34.941Z,10.05
2023-03-25T04:15:37.788Z,10.11
2023-03-25T04:20:45.025Z,10.14
2023-03-25T04:25:53.558Z,10.07
2023-03-25T04:30:56.913Z,10.23
2023-03-25T04:36:01.946Z,10.00
2023-03-25T04:41:06.934Z,10.10
2023-03-25T04:46:13.154Z,10.17
2023-03-25T04:51:16.083Z,9.99
2023-03-25T04:56:18.863Z,10.07
2023-03-25T05:01:24.659Z,10.05
2023-03-25T05:06:26.419Z,10.11
2023-03-25T05:11:29.065Z,10.08
2023-03-25T05:16:31.079Z,10.07
2023-03-25T05:21:37.596Z,10.08
2023-03-25T05:26:41.778Z,10.10
2023-03-25T05:31:45.793Z,10.09
2023-03-25T05:36:47.751Z,10.08
2023-03-25T05:41:50.456Z,10.01
2023-03-25T05:46:52.172Z,9.87
2023-03-25T05:51:55.781Z,9.91
2023-03-25T05:56:57.462Z,9.89
2023-03-25T06:01:59.575Z,9.86
2023-03-25T06:07:01.603Z,9.89
2023-03-25T06:12:04.172Z,9.78
2023-03-25T06:17:05.876Z,9.66
2023-03-25T06:22:09.429Z,9.48
2023-03-25T06:27:20.452Z,9.32
2023-03-25T06:32:22.100Z,9.46
2023-03-25T06:37:26.092Z,9.98
2023-03-25T06:42:28.997Z,10.07
2023-03-25T06:48:03.361Z,10.21
2023-03-25T06:53:05.228Z,10.36
2023-03-25T06:58:06.946Z,10.39
2023-03-25T07:03:09.709Z,10.40
2023-03-25T07:08:11.797Z,10.24
2023-03-25T07:13:13.612Z,10.06
2023-03-25T07:18:15.497Z,10.11
2023-03-25T07:23:17.410Z,10.18
2023-03-25T07:28:19.340Z,10.46
2023-03-25T07:33:22.369Z,10.67
2023-03-25T07:38:24.773Z,10.61
2023-03-25T07:43:26.577Z,10.47
2023-03-25T07:48:37.849Z,10.34
2023-03-25T07:53:42.511Z,10.09
2023-03-25T07:58:45.565Z,10.01
2023-03-25T08:03:47.570Z,10.01
2023-03-25T08:08:49.432Z,10.14
2023-03-25T08:13:52.221Z,10.05
2023-03-25T08:18:54.724Z,9.91
2023-03-25T08:24:04.928Z,9.93
2023-03-25T08:29:07.688Z,9.95
2023-03-25T08:34:13.245Z,9.80
2023-03-25T08:39:17.388Z,9.77
2023-03-25T08:44:19.268Z,9.52
2023-03-25T08:49:21.068Z,9.12
2023-03-25T08:54:23.295Z,8.88
2023-03-25T08:59:25.291Z,8.79
2023-03-25T09:04:27.201Z,8.80
2023-03-25T09:09:29.901Z,8.74
2023-03-25T09:14:31.603Z,8.46
2023-03-25T09:19:38.025Z,8.50
2023-03-25T09:24:40.649Z,8.32
2023-03-25T09:29:42.372Z,8.19
2023-03-25T09:34:45.022Z,8.21
2023-03-25T09:39:47.059Z,8.27
2023-03-25T09:44:55.812Z,8.51
2023-03-25T09:50:01.141Z,8.55
2023-03-25T09:55:18.542Z,8.66
2023-03-25T10:00:23.662Z,9.43
2023-03-25T10:05:34.656Z,10.31
2023-03-25T10:11:01.411Z,11.09
2023-03-25T10:16:11.463Z,11.75
2023-03-25T10:21:21.660Z,11.91
2023-03-25T10:26:32.873Z,11.98
2023-03-25T10:31:40.167Z,12.01
2023-03-25T10:36:51.915Z,11.93
2023-03-25T10:42:31.806Z,11.62
2023-03-25T10:47:39.115Z,11.41
2023-03-25T10:52:42.018Z,11.78
2023-03-25T10:57:44.452Z,12.03
2023-03-25T11:02:50.548Z,11.93
2023-03-25T11:07:58.745Z,12.72
2023-03-25T11:13:06.840Z,12.66
2023-03-25T11:18:12.345Z,12.63
2023-03-25T11:23:31.395Z,13.06
2023-03-25T11:28:38.439Z,12.37
2023-03-25T11:33:43.551Z,11.20
2023-03-25T11:38:51.022Z,10.41
2023-03-25T11:43:52.749Z,9.99
2023-03-25T11:48:54.565Z,10.57
2023-03-25T11:54:12.504Z,11.60
2023-03-25T11:59:23.148Z,12.31
2023-03-25T12:04:25.054Z,12.25
2023-03-25T12:09:31.992Z,12.83
2023-03-25T12:15:02.909Z,12.83
2023-03-25T12:20:16.768Z,13.08
2023-03-25T12:25:58.668Z,12.94
2023-03-25T12:31:25.332Z,12.85
2023-03-25T12:36:29.613Z,12.82
2023-03-25T12:41:43.434Z,12.86
2023-03-25T12:46:56.961Z,12.07
2023-03-25T12:52:35.712Z,10.56
2023-03-25T12:57:37.665Z,10.56
2023-03-25T13:03:01.188Z,11.07
2023-03-25T13:08:24.384Z,11.19
2023-03-25T13:13:28.598Z,11.30
2023-03-25T13:19:01.791Z,11.57
2023-03-25T13:24:31.254Z,11.70
2023-03-25T13:29:43.459Z,11.98
2023-03-25T13:35:05.353Z,12.12
2023-03-25T13:40:22.455Z,12.33
2023-03-25T13:45:27.456Z,12.23
2023-03-25T13:50:31.991Z,12.51
2023-03-25T13:55:40.961Z,12.81
2023-03-25T14:01:20.930Z,13.05
2023-03-25T14:06:30.044Z,13.02
2023-03-25T14:11:37.446Z,12.99
2023-03-25T14:16:45.378Z,12.94
2023-03-25T14:21:51.827Z,13.05
2023-03-25T14:27:00.219Z,13.04
2023-03-25T14:32:03.206Z,12.82
2023-03-25T14:37:07.682Z,12.69
2023-03-25T14:42:11.224Z,9.17
2023-03-25T14:47:22.454Z,7.79
2023-03-25T14:52:37.523Z,7.52
2023-03-25T14:57:42.397Z,7.68
2023-03-25T15:02:50.831Z,7.75
2023-03-25T15:08:35.638Z,7.70
2023-03-25T15:13:46.330Z,7.84
2023-03-25T15:18:49.548Z,8.10
2023-03-25T15:24:00.930Z,8.52
2023-03-25T15:29:21.190Z,8.95
2023-03-25T15:34:54.286Z,9.51
2023-03-25T15:40:12.421Z,9.62
2023-03-25T15:45:36.131Z,9.71
2023-03-25T15:50:59.315Z,9.80
2023-03-25T15:56:09.346Z,9.82
2023-03-25T16:01:21.635Z,9.73
2023-03-25T16:06:25.887Z,9.54
2023-03-25T16:11:28.997Z,9.54
2023-03-25T16:16:35.987Z,9.60
2023-03-25T16:21:38.549Z,9.73
2023-03-25T16:26:46.576Z,9.70
2023-03-25T16:32:05.325Z,9.72
2023-03-25T16:37:07.938Z,9.62
2023-03-25T16:42:26.491Z,9.52
2023-03-25T16:47:32.761Z,9.53
2023-03-25T16:52:35.097Z,9.44
2023-03-25T16:57:39.972Z,9.53
2023-03-25T17:02:41.965Z,9.43
2023-03-25T17:07:43.890Z,9.29
2023-03-25T17:12:55.880Z,9.20
2023-03-25T17:18:03.677Z,9.09
2023-03-25T17:23:08.475Z,9.06
2023-03-25T17:28:41.355Z,9.07
2023-03-25T17:33:54.147Z,9.06
2023-03-25T17:38:57.440Z,9.03
2023-03-25T17:44:00.649Z,8.94
2023-03-25T17:49:13.938Z,8.89
2023-03-25T17:54:15.965Z,8.69
2023-03-25T17:59:20.958Z,8.63
2023-03-25T18:04:22.816Z,8.55
2023-03-25T18:09:25.165Z,8.65
2023-03-25T18:14:27.023Z,8.59
2023-03-25T18:19:31.943Z,8.78
2023-03-25T18:24:34.135Z,8.86
2023-03-25T18:29:38.301Z,8.82
2023-03-25T18:34:40.142Z,8.92
2023-03-25T18:39:41.852Z,9.01
2023-03-25T18:44:43.681Z,9.01
2023-03-25T18:49:45.495Z,9.00
2023-03-25T18:54:47.258Z,9.30
2023-03-25T18:59:49.206Z,9.14
2023-03-25T19:05:00.242Z,9.29
2023-03-25T19:10:03.503Z,9.13
2023-03-25T19:15:05.516Z,9.13
2023-03-25T19:20:09.103Z,9.13
2023-03-25T19:25:11.903Z,9.27
2023-03-25T19:30:19.796Z,9.18
2023-03-25T19:35:23.262Z,9.09
2023-03-25T19:40:28.147Z,9.19
2023-03-25T19:45:31.336Z,9.27
2023-03-25T19:50:34.549Z,9.45
2023-03-25T19:55:36.266Z,9.00
2023-03-25T20:00:38.611Z,8.82
2023-03-25T20:05:41.096Z,8.51
2023-03-25T20:10:42.975Z,8.66
2023-03-25T20:15:44.767Z,8.89
2023-03-25T20:20:49.076Z,8.80
2023-03-25T20:25:51.223Z,8.53
2023-03-25T20:30:53.249Z,8.42
2023-03-25T20:35:55.259Z,8.35
2023-03-25T20:40:57.346Z,8.22
2023-03-25T20:45:59.308Z,8.28
2023-03-25T20:51:04.019Z,8.15
2023-03-25T20:56:05.951Z,8.19
2023-03-25T21:01:08.120Z,8.07
2023-03-25T21:06:22.898Z,8.06
2023-03-25T21:11:26.551Z,8.03
2023-03-25T21:16:28.534Z,8.10
2023-03-25T21:21:32.088Z,8.19
2023-03-25T21:26:34.811Z,8.23
2023-03-25T21:31:38.605Z,8.18
2023-03-25T21:36:41.108Z,8.13
2023-03-25T21:41:42.931Z,8.28
2023-03-25T21:46:44.699Z,8.37
2023-03-25T21:51:50.315Z,8.66
2023-03-25T21:56:56.658Z,8.69
2023-03-25T22:01:58.596Z,8.94
2023-03-25T22:07:00.375Z,8.97
2023-03-25T22:12:02.259Z,8.89
2023-03-25T22:17:04.079Z,8.74
2023-03-25T22:22:10.849Z,8.80
2023-03-25T22:27:13.132Z,8.62
2023-03-25T22:32:14.908Z,8.75
2023-03-25T22:37:17.048Z,8.64
2023-03-25T22:42:18.826Z,8.68
2023-03-25T22:47:20.574Z,8.69
2023-03-25T22:52:22.337Z,8.66
2023-03-25T22:57:24.042Z,8.67
2023-03-25T23:02:26.032Z,8.68
2023-03-25T23:07:27.788Z,8.66
2023-03-25T23:12:29.737Z,8.44
2023-03-25T23:17:31.787Z,8.41
2023-03-25T23:22:37.015Z,8.40
2023-03-25T23:27:39.320Z,8.26
2023-03-25T23:32:42.133Z,8.16
2023-03-25T23:37:45.577Z,8.16
2023-03-25T23:42:47.346Z,8.03
2023-03-25T23:47:49.353Z,8.05
2023-03-25T23:52:51.334Z,8.09
2023-03-25T23:57:55.392Z,8.05
